createdAt,value
2023-04-27T00:00:22.807Z,101497.31
2023-04-27T00:05:27.605Z,101490.16
2023-04-27T00:10:31.771Z,101494.63
2023-04-27T00:15:34.606Z,101491.03
2023-04-27T00:20:37.353Z,101487.72
2023-04-27T00:25:41.591Z,101489.09
2023-04-27T00:30:45.071Z,101482.69
2023-04-27T00:35:47.960Z,101481.38
2023-04-27T00:40:52.119Z,101480.22
2023-04-27T00:45:55.944Z,101486.59
2023-04-27T00:50:58.913Z,101490.53
2023-04-27T00:56:03.534Z,101498.53
2023-04-27T01:01:06.350Z,101489.84
2023-04-27T01:06:09.239Z,101498.56
2023-04-27T01:11:13.535Z,101498.56
2023-04-27T01:16:18.547Z,101498.63
2023-04-27T01:21:21.366Z,101503.13
2023-04-27T01:26:25.539Z,101504.44
2023-04-27T01:31:28.373Z,101511.69
2023-04-27T01:36:31.830Z,101524.06
2023-04-27T01:41:36.063Z,101526.19
2023-04-27T01:46:39.760Z,101519.28
2023-04-27T01:51:43.104Z,101533.09
2023-04-27T01:56:47.310Z,101532.28
2023-04-27T02:01:50.136Z,101542.94
2023-04-27T02:06:52.963Z,101560.56
2023-04-27T02:11:57.336Z,101556.75
2023-04-27T02:17:01.850Z,101563.09
2023-04-27T02:22:05.152Z,101565.31
2023-04-27T02:27:09.377Z,101554.59
2023-04-27T02:32:12.689Z,101553.44
2023-04-27T02:37:15.517Z,101551.78
2023-04-27T02:42:19.768Z,101549.81
2023-04-27T02:47:22.508Z,101548.81
2023-04-27T02:52:25.413Z,101544.25
2023-04-27T02:57:30.073Z,101556.16
2023-04-27T03:02:33.188Z,101559.06
2023-04-27T03:07:36.120Z,101554.31
2023-04-27T03:12:41.074Z,101548.34
2023-04-27T03:17:43.885Z,101549.47
2023-04-27T03:22:46.746Z,101559.94
2023-04-27T03:27:50.916Z,101558.41
2023-04-27T03:32:53.954Z,101559.34
2023-04-27T03:37:56.719Z,101558.41
2023-04-27T03:43:00.964Z,101557.97
2023-04-27T03:48:03.861Z,101572.94
2023-04-27T03:53:07.043Z,101573.09
2023-04-27T03:58:12.067Z,101577.19
2023-04-27T04:03:25.827Z,101566.44
2023-04-27T04:08:28.827Z,101570.22
2023-04-27T04:13:32.946Z,101578.56
2023-04-27T04:18:36.203Z,101569.31
2023-04-27T04:23:41.219Z,101571.56
2023-04-27T04:28:45.858Z,101581.28
2023-04-27T04:33:48.673Z,101588.69
2023-04-27T04:38:53.770Z,101600.78
2023-04-27T04:43:58.409Z,101600.44
2023-04-27T04:49:02.400Z,101603.41
2023-04-27T04:54:13.664Z,101600.09
2023-04-27T04:59:17.896Z,101601.63
2023-04-27T05:04:21.047Z,101616.31
2023-04-27T05:09:25.430Z,101617.56
2023-04-27T05:14:29.692Z,101623.94
2023-04-27T05:19:32.716Z,101620.88
2023-04-27T05:24:36.004Z,101615.88
2023-04-27T05:29:41.658Z,101618.78
2023-04-27T05:34:46.232Z,101617.75
2023-04-27T05:39:50.260Z,101620.59
2023-04-27T05:44:56.085Z,101617.44
2023-04-27T05:49:59.187Z,101613.97
2023-04-27T05:55:02.013Z,101609.38
2023-04-27T06:00:11.179Z,101619.84
2023-04-27T06:05:17.235Z,101623.13
2023-04-27T06:10:20.036Z,101629.50
2023-04-27T06:15:24.269Z,101624.53
2023-04-27T06:20:27.043Z,101626.50
2023-04-27T06:25:29.979Z,101630.84
2023-04-27T06:30:34.616Z,101625.81
2023-04-27T06:35:37.524Z,101623.66
2023-04-27T06:40:40.733Z,101621.91
2023-04-27T06:45:45.033Z,101620.31
2023-04-27T06:50:48.514Z,101608.94
2023-04-27T06:56:02.658Z,101603.94
2023-04-27T07:01:10.073Z,101596.78
2023-04-27T07:06:49.195Z,101602.16
2023-04-27T07:11:54.434Z,101627.28
2023-04-27T07:17:04.632Z,101635.84
2023-04-27T07:22:08.957Z,101640.38
2023-04-27T07:27:27.550Z,101638.56
2023-04-27T07:32:32.854Z,101635.34
2023-04-27T07:37:35.911Z,101634.84
2023-04-27T07:42:39.570Z,101649.66
2023-04-27T07:47:44.000Z,101662.41
2023-04-27T07:52:47.302Z,101666.84
2023-04-27T08:04:25.626Z,101656.81
2023-04-27T08:09:29.974Z,101657.69
2023-04-27T08:14:35.333Z,101649.31
2023-04-27T08:19:38.236Z,101637.72
2023-04-27T08:24:44.723Z,101637.69
2023-04-27T08:29:48.373Z,101639.56
2023-04-27T08:34:53.491Z,101649.78
2023-04-27T08:39:57.844Z,101633.03
2023-04-27T08:45:12.227Z,101626.44
2023-04-27T08:50:15.002Z,101619.16
2023-04-27T08:55:19.306Z,101617.38
2023-04-27T09:00:22.747Z,101626.59
2023-04-27T09:05:25.879Z,101619.22
2023-04-27T09:10:30.434Z,101624.22
2023-04-27T09:15:47.752Z,101640.69
2023-04-27T09:20:54.428Z,101636.84
2023-04-27T09:26:32.379Z,101638.13
2023-04-27T09:32:06.874Z,101632.50
2023-04-27T09:37:45.550Z,101634.13
2023-04-27T09:42:50.434Z,101619.00
2023-04-27T09:47:56.569Z,101613.19
2023-04-27T09:52:59.695Z,101614.88
2023-04-27T09:58:16.337Z,101620.56
2023-04-27T10:03:27.669Z,101609.38
2023-04-27T10:08:30.859Z,101623.75
2023-04-27T10:13:35.118Z,101616.38
2023-04-27T10:18:37.998Z,101616.66
2023-04-27T10:23:48.732Z,101624.59
2023-04-27T10:29:00.343Z,101617.25
2023-04-27T10:34:10.042Z,101620.09
2023-04-27T10:39:18.127Z,101634.31
2023-04-27T10:45:11.076Z,101628.41
2023-04-27T10:50:19.347Z,101626.41
2023-04-27T11:15:04.647Z,101630.81
2023-04-27T11:20:23.076Z,101631.00
2023-04-27T11:25:55.361Z,101635.06
2023-04-27T11:30:59.036Z,101629.84
2023-04-27T11:36:07.176Z,101627.22
2023-04-27T11:41:12.505Z,101628.16
2023-04-27T11:46:15.495Z,101639.41
2023-04-27T11:51:25.928Z,101625.91
2023-04-27T11:56:37.733Z,101625.84
2023-04-27T12:15:50.801Z,101627.72
2023-04-27T12:20:53.720Z,101627.56
2023-04-27T12:25:56.584Z,101639.97
2023-04-27T12:31:06.551Z,101638.81
2023-04-27T12:36:09.608Z,101641.84
2023-04-27T12:41:12.554Z,101644.94
2023-04-27T12:46:18.879Z,101642.63
2023-04-27T12:58:00.734Z,101636.63
2023-04-27T13:03:37.924Z,101650.56
2023-04-27T13:08:41.970Z,101650.34
2023-04-27T13:14:30.783Z,101658.03
2023-04-27T13:20:00.523Z,101673.13
2023-04-27T13:25:36.031Z,101663.63
2023-04-27T13:36:47.777Z,101654.19
2023-04-27T13:41:55.670Z,101654.06
2023-04-27T13:47:06.880Z,101654.66
2023-04-27T13:52:11.480Z,101644.25
2023-04-27T13:57:14.433Z,101640.66
2023-04-27T14:02:17.392Z,101640.22
2023-04-27T14:07:21.740Z,101631.56
2023-04-27T14:19:06.588Z,101623.31
2023-04-27T14:31:24.248Z,101617.47
2023-04-27T14:36:44.592Z,101616.19
2023-04-27T14:42:25.295Z,101611.97
2023-04-27T14:54:28.095Z,101603.69
2023-04-27T15:00:00.824Z,101605.34
2023-04-27T15:10:55.715Z,101604.97
2023-04-27T15:16:36.157Z,101611.06
2023-04-27T15:21:49.713Z,101601.72
2023-04-27T15:27:22.092Z,101600.91
2023-04-27T15:32:29.845Z,101599.22
2023-04-27T15:37:37.796Z,101600.94
2023-04-27T15:43:19.998Z,101592.72
2023-04-27T15:48:48.940Z,101594.84
2023-04-27T15:54:37.313Z,101591.44
2023-04-27T15:59:44.034Z,101584.50
2023-04-27T16:04:55.213Z,101586.97
2023-04-27T16:11:18.502Z,101591.88
2023-04-27T16:16:23.413Z,101578.78
2023-04-27T16:21:28.030Z,101579.13
2023-04-27T16:26:31.580Z,101576.84
2023-04-27T16:31:35.732Z,101580.81
2023-04-27T16:36:38.670Z,101579.09
2023-04-27T16:41:41.417Z,101576.25
2023-04-27T16:46:45.684Z,101576.59
2023-04-27T16:51:49.062Z,101569.25
2023-04-27T16:56:53.237Z,101577.53
2023-04-27T17:02:09.093Z,101582.88
2023-04-27T17:07:19.777Z,101584.44
2023-04-27T17:12:22.606Z,101583.72
2023-04-27T17:17:26.948Z,101585.19
2023-04-27T17:22:54.330Z,101591.22
2023-04-27T17:28:03.030Z,101590.16
2023-04-27T17:33:07.261Z,101581.50
2023-04-27T17:38:35.545Z,101578.59
2023-04-27T17:44:34.927Z,101568.09
2023-04-27T18:17:04.586Z,101572.31
2023-04-27T19:13:07.153Z,101586.19
2023-04-27T19:18:22.895Z,101588.66
2023-04-27T19:23:32.404Z,101588.28
2023-04-27T19:28:42.115Z,101591.06
2023-04-27T19:51:25.438Z,101598.38
2023-04-27T20:01:21.947Z,101576.72
2023-04-27T20:06:24.832Z,101580.63
2023-04-27T20:11:27.994Z,101583.50
2023-04-27T20:16:32.240Z,101582.69
2023-04-27T20:21:35.055Z,101581.28
2023-04-27T20:26:37.867Z,101577.38
2023-04-27T20:31:42.394Z,101575.50
2023-04-27T20:36:45.463Z,101579.75
2023-04-27T20:41:49.133Z,101579.56
2023-04-27T20:46:53.429Z,101568.25
2023-04-27T20:51:56.246Z,101562.53
2023-04-27T20:57:02.103Z,101564.59
2023-04-27T21:02:07.621Z,101564.53
2023-04-27T21:07:10.516Z,101565.88
2023-04-27T21:12:14.684Z,101569.25
2023-04-27T21:17:18.744Z,101562.38
2023-04-27T21:22:21.593Z,101566.59
2023-04-27T21:27:33.456Z,101548.38
2023-04-27T21:32:40.711Z,101545.97
2023-04-27T21:37:43.631Z,101552.84
2023-04-27T21:42:46.475Z,101542.97
2023-04-27T21:47:50.820Z,101544.38
2023-04-27T21:52:59.751Z,101542.59
2023-04-27T21:58:04.625Z,101534.88
2023-04-27T22:03:09.080Z,101536.91
2023-04-27T22:08:12.173Z,101532.00
2023-04-27T22:13:18.756Z,101530.00
2023-04-27T22:18:23.811Z,101533.69
2023-04-27T22:23:26.784Z,101522.06
2023-04-27T22:28:29.706Z,101517.09
2023-04-27T22:33:34.423Z,101510.50
2023-04-27T22:38:37.224Z,101508.97
2023-04-27T22:43:39.973Z,101513.25
2023-04-27T22:48:45.037Z,101508.94
2023-04-27T22:53:47.893Z,101510.09
2023-04-27T22:58:51.640Z,101509.13
2023-04-27T23:03:56.192Z,101496.97
2023-04-27T23:08:59.122Z,101494.94
2023-04-27T23:14:02.354Z,101495.78
2023-04-27T23:19:06.493Z,101490.22
2023-04-27T23:24:09.708Z,101494.34
2023-04-27T23:29:12.660Z,101493.78
2023-04-27T23:34:17.453Z,101483.97
2023-04-27T23:39:20.603Z,101476.28
2023-04-27T23:44:23.456Z,101472.41
2023-04-27T23:49:27.633Z,101474.63
2023-04-27T23:54:31.477Z,101468.56
2023-04-27T23:59:35.322Z,101464.16
